Time;durP1;ratioP1;P1;durP2;ratioP2;P2;SDS_P1;SDS_P2;PMS_P1;PMS_P2;Temp;Humidity;BMP_temperature;BMP_pressure;BME280_temperature;BME280_humidity;BME280_pressure;Samples;Min_cycle;Max_cycle;Signal;HPM_P1;HPM_P2
2023/03/09 00:02:12;;;;;;;;;;;23.90;75.40;;;;;;5043883;28;19983;-69
2023/03/09 00:04:39;;;;;;;;;;;24.00;74.50;;;;;;5044890;28;20372;-69
2023/03/09 00:07:06;;;;;;;;;;;24.00;74.20;;;;;;5044461;28;19971;-67
2023/03/09 00:09:33;;;;;;;;;;;24.10;74.10;;;;;;5044111;28;19958;-69
2023/03/09 00:11:59;;;;;;;;;;;24.20;72.80;;;;;;5042669;28;19916;-70
2023/03/09 00:14:26;;;;;;;;;;;24.20;72.20;;;;;;5044686;28;20374;-72
2023/03/09 00:16:53;;;;;;;;;;;24.20;71.10;;;;;;5044317;28;19915;-69
2023/03/09 00:19:37;;;;;;;;;;;24.20;71.90;;;;;;5042546;28;19919;-69
2023/03/09 00:22:04;;;;;;;;;;;24.20;73.10;;;;;;5042613;28;19915;-71
2023/03/09 00:24:31;;;;;;;;;;;24.30;71.60;;;;;;5044532;28;20393;-70
2023/03/09 00:26:58;;;;;;;;;;;24.40;71.10;;;;;;5043303;28;19909;-69
2023/03/09 00:29:27;;;;;;;;;;;24.50;71.20;;;;;;5044273;28;19920;-69
2023/03/09 00:31:53;;;;;;;;;;;24.50;69.90;;;;;;5044750;28;19948;-69
2023/03/09 00:34:20;;;;;;;;;;;24.50;71.80;;;;;;5043211;28;20404;-68
2023/03/09 00:36:47;;;;;;;;;;;24.70;71.00;;;;;;5043674;28;19916;-69
2023/03/09 00:39:15;;;;;;;;;;;24.80;70.50;;;;;;5042447;28;19921;-67
2023/03/09 00:41:41;;;;;;;;;;;24.80;70.00;;;;;;5043673;28;19963;-69
2023/03/09 00:44:08;;;;;;;;;;;24.80;69.20;;;;;;5042491;28;20669;-66
2023/03/09 00:46:35;;;;;;;;;;;24.80;68.70;;;;;;5044131;28;19916;-68
2023/03/09 00:49:05;;;;;;;;;;;24.80;68.90;;;;;;5043689;28;19909;-68
2023/03/09 00:51:33;;;;;;;;;;;25.00;70.30;;;;;;5044363;28;19913;-67
2023/03/09 00:54:00;;;;;;;;;;;25.20;69.40;;;;;;5043636;28;20278;-68
2023/03/09 00:56:29;;;;;;;;;;;25.30;69.10;;;;;;5043289;28;19962;-68
2023/03/09 00:58:56;;;;;;;;;;;25.30;68.80;;;;;;5043950;28;19920;-69
2023/03/09 01:01:24;;;;;;;;;;;25.50;69.60;;;;;;5041243;28;19918;-70
2023/03/09 01:03:50;;;;;;;;;;;25.60;68.80;;;;;;5036884;28;19916;-70
2023/03/09 01:06:17;;;;;;;;;;;25.80;69.10;;;;;;5041153;28;19908;-71
2023/03/09 01:08:45;;;;;;;;;;;25.80;69.00;;;;;;5043265;28;19913;-75
2023/03/09 01:11:12;;;;;;;;;;;25.90;68.40;;;;;;5039978;28;19936;-72
2023/03/09 01:13:40;;;;;;;;;;;26.00;67.80;;;;;;5040662;28;20388;-69
2023/03/09 01:16:07;;;;;;;;;;;25.90;65.90;;;;;;5042500;28;19912;-71
2023/03/09 01:18:34;;;;;;;;;;;25.80;66.50;;;;;;5043332;28;20393;-70
2023/03/09 01:21:00;;;;;;;;;;;25.90;67.30;;;;;;5043060;28;19972;-67
2023/03/09 01:23:27;;;;;;;;;;;26.00;68.10;;;;;;5040841;28;19948;-67
2023/03/09 01:25:56;;;;;;;;;;;26.20;67.00;;;;;;5043125;28;19913;-67
2023/03/09 01:28:23;;;;;;;;;;;26.40;66.50;;;;;;5041572;28;19970;-67
2023/03/09 01:30:49;;;;;;;;;;;26.50;67.40;;;;;;5042901;28;20316;-71
2023/03/09 01:33:16;;;;;;;;;;;26.70;66.60;;;;;;5040682;28;19935;-70
2023/03/09 01:35:43;;;;;;;;;;;26.70;65.20;;;;;;5042911;28;19954;-68
2023/03/09 01:38:09;;;;;;;;;;;26.70;67.10;;;;;;5041658;28;20393;-69
2023/03/09 01:40:39;;;;;;;;;;;26.80;65.80;;;;;;5041778;28;19913;-71
2023/03/09 01:43:39;;;;;;;;;;;26.60;65.70;;;;;;5042084;28;19913;-71
2023/03/09 01:46:24;;;;;;;;;;;26.70;64.90;;;;;;5030660;28;19921;-66
2023/03/09 01:48:51;;;;;;;;;;;26.80;64.80;;;;;;5043044;28;20000;-69
2023/03/09 01:51:18;;;;;;;;;;;26.90;65.10;;;;;;5040669;28;19988;-68
2023/03/09 01:53:46;;;;;;;;;;;26.90;64.50;;;;;;5043069;28;19957;-68
2023/03/09 01:56:14;;;;;;;;;;;27.00;64.50;;;;;;5041932;28;19920;-66
2023/03/09 01:58:41;;;;;;;;;;;27.30;64.40;;;;;;5042714;28;19917;-66
2023/03/09 02:01:10;;;;;;;;;;;27.40;63.50;;;;;;5042116;28;20416;-70
2023/03/09 02:03:38;;;;;;;;;;;27.60;64.80;;;;;;5041513;28;19944;-70
2023/03/09 02:06:13;;;;;;;;;;;28.00;66.70;;;;;;5042717;28;19917;-71
2023/03/09 02:08:42;;;;;;;;;;;28.40;62.50;;;;;;5040397;28;20007;-68
2023/03/09 02:11:11;;;;;;;;;;;28.50;65.30;;;;;;5041591;28;20804;-68
2023/03/09 02:13:40;;;;;;;;;;;28.70;62.30;;;;;;5040657;28;20764;-68
2023/03/09 02:16:07;;;;;;;;;;;28.80;60.70;;;;;;5042148;28;19916;-68
2023/03/09 02:18:34;;;;;;;;;;;29.00;60.80;;;;;;5040920;28;19912;-69
2023/03/09 02:21:26;;;;;;;;;;;29.00;60.70;;;;;;5042612;28;20089;-70
2023/03/09 02:23:53;;;;;;;;;;;29.10;60.40;;;;;;5039640;28;19923;-66
2023/03/09 02:26:26;;;;;;;;;;;29.20;61.60;;;;;;5041036;28;19995;-67
2023/03/09 02:28:52;;;;;;;;;;;29.40;59.80;;;;;;5042645;28;19909;-67
2023/03/09 02:31:19;;;;;;;;;;;29.60;59.40;;;;;;5040584;28;19925;-67
2023/03/09 02:33:46;;;;;;;;;;;29.80;59.50;;;;;;5040387;28;19920;-66
2023/03/09 02:36:13;;;;;;;;;;;30.00;58.30;;;;;;5042051;28;19913;-69
2023/03/09 02:38:39;;;;;;;;;;;29.90;57.50;;;;;;5039910;28;19927;-66
2023/03/09 02:41:08;;;;;;;;;;;29.90;57.80;;;;;;5040193;28;19917;-72
2023/03/09 02:43:37;;;;;;;;;;;30.10;58.80;;;;;;5036079;28;19955;-68
2023/03/09 02:46:03;;;;;;;;;;;30.30;57.60;;;;;;5038228;28;19912;-68
2023/03/09 02:48:30;;;;;;;;;;;30.40;57.40;;;;;;5039165;28;19920;-75
2023/03/09 02:50:57;;;;;;;;;;;30.40;58.20;;;;;;5040735;28;19920;-67
2023/03/09 02:53:23;;;;;;;;;;;30.60;59.40;;;;;;5040016;28;19912;-68
2023/03/09 02:55:50;;;;;;;;;;;30.90;57.80;;;;;;5039038;28;19917;-68
2023/03/09 02:58:16;;;;;;;;;;;31.50;58.60;;;;;;5042167;28;19913;-68
2023/03/09 03:00:43;;;;;;;;;;;32.20;57.10;;;;;;5040138;28;19913;-66
2023/03/09 03:03:10;;;;;;;;;;;32.60;54.80;;;;;;5041934;28;19916;-67
2023/03/09 03:05:36;;;;;;;;;;;33.20;54.90;;;;;;5040985;28;19909;-68
2023/03/09 03:08:03;;;;;;;;;;;33.80;52.50;;;;;;5041913;28;20003;-70
2023/03/09 03:10:30;;;;;;;;;;;34.10;53.70;;;;;;5037404;28;19924;-68
2023/03/09 03:12:57;;;;;;;;;;;35.30;52.60;;;;;;5041632;28;19917;-67
2023/03/09 03:15:23;;;;;;;;;;;36.50;50.80;;;;;;5041529;28;19962;-68
2023/03/09 03:17:50;;;;;;;;;;;37.50;51.50;;;;;;5041577;28;20422;-67
2023/03/09 03:20:17;;;;;;;;;;;38.10;49.70;;;;;;5042829;28;19995;-67
2023/03/09 03:22:44;;;;;;;;;;;38.70;48.30;;;;;;5040948;28;20263;-68
2023/03/09 03:25:11;;;;;;;;;;;39.30;48.00;;;;;;5042808;28;20392;-69
2023/03/09 03:27:38;;;;;;;;;;;40.00;46.20;;;;;;5045989;28;19909;-68
2023/03/09 03:30:05;;;;;;;;;;;41.00;47.20;;;;;;5045146;28;19941;-68
2023/03/09 03:32:31;;;;;;;;;;;41.20;45.00;;;;;;5045501;28;19940;-67
2023/03/09 03:34:58;;;;;;;;;;;41.50;44.60;;;;;;5045641;28;19909;-67
2023/03/09 03:37:24;;;;;;;;;;;41.90;44.70;;;;;;5046680;28;19909;-68
2023/03/09 03:39:51;;;;;;;;;;;41.90;44.40;;;;;;5044625;28;19974;-66
2023/03/09 03:42:18;;;;;;;;;;;42.60;44.70;;;;;;5045829;28;19913;-66
2023/03/09 03:44:44;;;;;;;;;;;42.30;44.40;;;;;;5045034;28;19967;-68
2023/03/09 03:47:11;;;;;;;;;;;42.70;46.50;;;;;;5046218;28;20397;-69
2023/03/09 03:49:38;;;;;;;;;;;42.90;45.80;;;;;;5045054;28;19924;-73
2023/03/09 03:52:05;;;;;;;;;;;42.30;46.80;;;;;;5045775;28;19909;-71
2023/03/09 03:54:31;;;;;;;;;;;42.50;48.10;;;;;;5045715;28;19952;-70
2023/03/09 03:56:58;;;;;;;;;;;41.90;48.30;;;;;;5030465;28;19915;-68
2023/03/09 03:59:24;;;;;;;;;;;41.80;48.60;;;;;;5041594;28;20011;-71
2023/03/09 04:01:51;;;;;;;;;;;41.50;50.50;;;;;;5041877;28;19993;-70
2023/03/09 04:04:18;;;;;;;;;;;41.80;49.00;;;;;;5045136;28;20282;-68
2023/03/09 04:06:44;;;;;;;;;;;42.30;50.10;;;;;;5043743;28;20354;-69
2023/03/09 04:09:11;;;;;;;;;;;42.20;49.00;;;;;;5043379;28;19919;-67
2023/03/09 04:11:37;;;;;;;;;;;42.20;48.80;;;;;;5043882;28;20382;-69
2023/03/09 04:14:04;;;;;;;;;;;42.10;48.70;;;;;;5043362;28;19909;-68
2023/03/09 04:16:31;;;;;;;;;;;41.90;48.60;;;;;;5044562;28;19940;-70
2023/03/09 04:18:57;;;;;;;;;;;42.20;49.10;;;;;;5042934;28;19909;-68
2023/03/09 04:21:24;;;;;;;;;;;42.60;48.80;;;;;;5042911;28;19920;-69
2023/03/09 04:23:51;;;;;;;;;;;42.40;47.80;;;;;;5039762;28;19959;-67
2023/03/09 04:26:19;;;;;;;;;;;42.10;47.90;;;;;;5044396;28;19912;-70
2023/03/09 04:28:45;;;;;;;;;;;42.20;48.30;;;;;;5043053;28;20011;-70
2023/03/09 04:31:12;;;;;;;;;;;42.10;48.30;;;;;;5044670;28;20488;-71
2023/03/09 04:33:42;;;;;;;;;;;42.40;48.20;;;;;;5043850;28;19913;-67
2023/03/09 04:36:12;;;;;;;;;;;42.10;47.50;;;;;;5042850;28;19924;-69
2023/03/09 04:38:39;;;;;;;;;;;42.20;47.10;;;;;;5042650;28;19920;-69
2023/03/09 04:41:06;;;;;;;;;;;42.10;47.40;;;;;;5043976;28;19988;-66
2023/03/09 04:43:33;;;;;;;;;;;42.00;48.10;;;;;;5043195;28;19974;-68
2023/03/09 04:45:59;;;;;;;;;;;42.40;47.40;;;;;;5042659;28;20416;-71
2023/03/09 04:48:26;;;;;;;;;;;42.60;47.20;;;;;;5043824;28;19909;-71
2023/03/09 04:50:52;;;;;;;;;;;43.10;47.90;;;;;;5039789;28;19935;-68
2023/03/09 04:53:19;;;;;;;;;;;42.70;47.00;;;;;;5043582;28;19912;-71
2023/03/09 04:55:46;;;;;;;;;;;42.80;47.20;;;;;;5042296;28;19913;-66
2023/03/09 04:58:13;;;;;;;;;;;43.00;46.50;;;;;;5043552;28;19909;-69
2023/03/09 05:00:39;;;;;;;;;;;42.70;47.60;;;;;;5043929;28;19909;-68
2023/03/09 05:03:06;;;;;;;;;;;42.70;46.40;;;;;;5042583;28;19962;-75
2023/03/09 05:05:32;;;;;;;;;;;43.00;46.30;;;;;;5042321;28;19909;-70
2023/03/09 05:07:59;;;;;;;;;;;42.50;46.20;;;;;;5042172;28;20340;-76
2023/03/09 05:10:26;;;;;;;;;;;42.10;47.10;;;;;;5042916;28;20358;-69
2023/03/09 05:12:52;;;;;;;;;;;42.50;46.80;;;;;;5041417;28;20341;-73
2023/03/09 05:15:19;;;;;;;;;;;42.30;46.60;;;;;;5033853;28;20222;-76
2023/03/09 05:17:45;;;;;;;;;;;42.20;47.00;;;;;;5040296;28;19921;-69
2023/03/09 05:20:13;;;;;;;;;;;42.20;46.40;;;;;;5037770;28;19936;-72
2023/03/09 05:22:40;;;;;;;;;;;42.10;46.60;;;;;;5039269;28;20289;-68
2023/03/09 05:25:06;;;;;;;;;;;41.60;46.40;;;;;;5034794;28;19913;-70
2023/03/09 05:27:33;;;;;;;;;;;41.70;47.80;;;;;;5035762;28;20318;-73
2023/03/09 05:30:00;;;;;;;;;;;42.70;46.10;;;;;;5037493;28;20003;-81
2023/03/09 05:32:26;;;;;;;;;;;42.80;45.40;;;;;;5031173;28;19913;-76
2023/03/09 05:34:53;;;;;;;;;;;42.30;46.40;;;;;;5036394;28;19917;-74
2023/03/09 05:37:20;;;;;;;;;;;41.90;45.80;;;;;;5022825;28;19916;-74
2023/03/09 05:39:47;;;;;;;;;;;41.90;46.00;;;;;;5045904;28;20388;-67
2023/03/09 05:42:13;;;;;;;;;;;42.10;46.30;;;;;;5027429;28;19916;-71
2023/03/09 05:44:40;;;;;;;;;;;42.20;45.50;;;;;;5037738;28;19920;-68
2023/03/09 05:47:06;;;;;;;;;;;42.30;45.50;;;;;;5022029;28;19936;-67
2023/03/09 05:49:33;;;;;;;;;;;42.20;45.60;;;;;;5034213;28;19921;-67
2023/03/09 05:52:00;;;;;;;;;;;42.20;46.40;;;;;;5029634;28;19917;-67
2023/03/09 05:54:27;;;;;;;;;;;42.40;46.60;;;;;;5028319;28;19912;-68
2023/03/09 05:56:57;;;;;;;;;;;41.80;46.20;;;;;;5022788;28;19913;-71
2023/03/09 05:59:23;;;;;;;;;;;42.30;46.20;;;;;;5038400;28;19927;-68
2023/03/09 06:01:50;;;;;;;;;;;42.10;46.10;;;;;;5042037;28;19933;-73
2023/03/09 06:04:17;;;;;;;;;;;42.40;45.80;;;;;;5031657;28;20432;-72
2023/03/09 06:06:43;;;;;;;;;;;42.10;46.00;;;;;;5025036;28;20263;-68
2023/03/09 06:09:10;;;;;;;;;;;41.90;46.10;;;;;;5035271;28;20405;-76
2023/03/09 06:11:37;;;;;;;;;;;41.80;45.90;;;;;;5034292;28;20001;-76
2023/03/09 06:14:03;;;;;;;;;;;41.40;45.20;;;;;;5029284;28;20369;-72
2023/03/09 06:16:30;;;;;;;;;;;41.40;46.30;;;;;;5037292;28;20054;-66
2023/03/09 06:18:57;;;;;;;;;;;41.20;46.20;;;;;;5028985;28;20316;-67
2023/03/09 06:21:23;;;;;;;;;;;41.10;46.10;;;;;;5033941;28;19928;-69
2023/03/09 06:23:53;;;;;;;;;;;41.20;46.30;;;;;;5033118;28;19920;-66
2023/03/09 06:26:19;;;;;;;;;;;41.10;46.00;;;;;;5028218;28;19992;-66
2023/03/09 06:28:47;;;;;;;;;;;40.90;45.50;;;;;;5028046;28;19917;-68
2023/03/09 06:31:14;;;;;;;;;;;41.20;45.80;;;;;;5035541;28;19960;-68
2023/03/09 06:33:42;;;;;;;;;;;40.70;46.50;;;;;;5022316;28;19909;-68
2023/03/09 06:36:12;;;;;;;;;;;40.10;46.60;;;;;;5029620;28;20368;-70
2023/03/09 06:38:39;;;;;;;;;;;40.60;46.30;;;;;;5024643;28;20405;-67
2023/03/09 06:41:06;;;;;;;;;;;40.50;46.80;;;;;;5037751;28;20019;-74
2023/03/09 06:43:32;;;;;;;;;;;40.70;46.30;;;;;;5023785;28;19913;-68
2023/03/09 06:45:59;;;;;;;;;;;40.50;45.60;;;;;;5028931;28;20406;-68
2023/03/09 06:48:26;;;;;;;;;;;40.20;45.70;;;;;;5026710;28;19991;-68
2023/03/09 06:50:53;;;;;;;;;;;40.20;46.50;;;;;;5040676;28;19929;-67
2023/03/09 06:53:19;;;;;;;;;;;40.30;46.40;;;;;;5036099;28;19913;-67
2023/03/09 06:55:46;;;;;;;;;;;40.50;46.20;;;;;;5031059;28;20135;-67
2023/03/09 06:58:13;;;;;;;;;;;40.20;46.40;;;;;;5035995;28;20308;-73
2023/03/09 07:00:40;;;;;;;;;;;40.00;46.00;;;;;;5036569;28;19920;-68
2023/03/09 07:03:10;;;;;;;;;;;39.90;47.70;;;;;;5023741;28;19909;-69
2023/03/09 07:05:37;;;;;;;;;;;39.40;47.50;;;;;;5036118;28;20009;-67
2023/03/09 07:08:04;;;;;;;;;;;39.10;47.60;;;;;;5025922;28;19921;-71
2023/03/09 07:10:30;;;;;;;;;;;38.90;47.60;;;;;;5037274;28;20289;-69
2023/03/09 07:12:57;;;;;;;;;;;37.80;48.90;;;;;;5030815;28;19956;-70
2023/03/09 07:15:24;;;;;;;;;;;37.60;48.50;;;;;;5030412;28;19920;-74
2023/03/09 07:17:50;;;;;;;;;;;37.70;48.60;;;;;;5022561;28;20004;-68
2023/03/09 07:20:17;;;;;;;;;;;37.60;48.80;;;;;;5023454;28;19919;-71
2023/03/09 07:22:44;;;;;;;;;;;36.90;49.60;;;;;;5025036;28;19971;-71
2023/03/09 07:25:11;;;;;;;;;;;36.80;50.20;;;;;;5031494;28;19909;-70
2023/03/09 07:27:38;;;;;;;;;;;36.60;49.80;;;;;;5039004;28;19916;-71
2023/03/09 07:30:05;;;;;;;;;;;36.10;50.40;;;;;;5033670;28;19921;-70
2023/03/09 07:32:31;;;;;;;;;;;36.10;50.00;;;;;;5040635;28;19913;-68
2023/03/09 07:34:58;;;;;;;;;;;35.50;50.80;;;;;;5038711;28;20553;-70
2023/03/09 07:37:25;;;;;;;;;;;34.00;52.20;;;;;;5040306;28;20003;-71
2023/03/09 07:39:51;;;;;;;;;;;32.80;53.80;;;;;;5041420;28;20012;-75
2023/03/09 07:42:18;;;;;;;;;;;31.60;56.80;;;;;;5041082;28;19916;-70
2023/03/09 07:44:44;;;;;;;;;;;30.50;57.90;;;;;;5041100;28;19913;-68
2023/03/09 07:47:11;;;;;;;;;;;29.50;58.80;;;;;;5038358;28;19908;-69
2023/03/09 07:49:38;;;;;;;;;;;28.70;59.00;;;;;;5037971;28;20282;-74
2023/03/09 07:52:05;;;;;;;;;;;27.90;60.60;;;;;;5039200;28;19924;-70
2023/03/09 07:54:33;;;;;;;;;;;27.50;60.70;;;;;;5037196;28;19913;-70
2023/03/09 07:56:59;;;;;;;;;;;27.00;61.60;;;;;;5039272;28;20316;-74
2023/03/09 07:59:26;;;;;;;;;;;26.80;62.60;;;;;;5036389;28;19917;-69
2023/03/09 08:01:52;;;;;;;;;;;26.60;62.80;;;;;;5039542;28;19909;-71
2023/03/09 08:04:20;;;;;;;;;;;26.40;63.20;;;;;;5038279;28;19915;-70
2023/03/09 08:06:47;;;;;;;;;;;26.20;63.90;;;;;;5039445;28;19912;-77
2023/03/09 08:09:14;;;;;;;;;;;26.00;64.10;;;;;;5037037;28;20023;-74
2023/03/09 08:11:43;;;;;;;;;;;25.90;65.10;;;;;;5038454;28;19956;-71
2023/03/09 08:14:10;;;;;;;;;;;25.60;65.60;;;;;;5032227;28;19959;-70
2023/03/09 08:16:37;;;;;;;;;;;25.50;66.20;;;;;;5035731;28;19996;-76
2023/03/09 08:19:04;;;;;;;;;;;25.40;67.00;;;;;;5036019;28;19977;-79
2023/03/09 08:21:31;;;;;;;;;;;25.40;67.30;;;;;;5033987;28;19920;-76
2023/03/09 08:23:59;;;;;;;;;;;25.20;68.40;;;;;;5024701;28;19913;-76
2023/03/09 08:26:26;;;;;;;;;;;25.10;69.30;;;;;;5025865;28;20278;-72
2023/03/09 08:28:53;;;;;;;;;;;25.00;68.10;;;;;;5038799;28;19909;-76
2023/03/09 08:31:20;;;;;;;;;;;24.90;68.70;;;;;;5041392;28;20012;-69
2023/03/09 08:33:46;;;;;;;;;;;24.80;69.10;;;;;;5032141;28;19909;-79
2023/03/09 08:36:15;;;;;;;;;;;24.80;69.80;;;;;;5024319;28;19928;-77
2023/03/09 08:38:42;;;;;;;;;;;24.80;69.50;;;;;;5036175;28;19925;-69
2023/03/09 08:41:09;;;;;;;;;;;24.60;70.00;;;;;;5032010;28;19924;-75
2023/03/09 08:43:36;;;;;;;;;;;24.50;70.40;;;;;;5032269;28;19921;-69
2023/03/09 08:46:04;;;;;;;;;;;24.50;71.20;;;;;;5025121;28;19910;-76
2023/03/09 08:48:30;;;;;;;;;;;24.40;70.80;;;;;;5036932;28;19912;-69
2023/03/09 08:50:59;;;;;;;;;;;24.40;70.40;;;;;;5035593;28;19927;-76
2023/03/09 08:53:26;;;;;;;;;;;24.40;71.00;;;;;;5032971;28;19912;-75
2023/03/09 08:55:52;;;;;;;;;;;24.20;70.90;;;;;;5024916;28;19963;-68
2023/03/09 08:58:19;;;;;;;;;;;24.10;71.50;;;;;;5033463;28;20555;-68
2023/03/09 09:00:47;;;;;;;;;;;24.10;72.00;;;;;;5041549;28;19982;-68
2023/03/09 09:03:14;;;;;;;;;;;24.10;71.40;;;;;;5037742;28;20019;-67
2023/03/09 09:05:41;;;;;;;;;;;24.10;71.30;;;;;;5024359;28;19909;-75
2023/03/09 09:08:07;;;;;;;;;;;24.10;71.90;;;;;;5040562;28;19913;-67
2023/03/09 09:10:34;;;;;;;;;;;24.00;72.10;;;;;;5035465;28;19921;-68
2023/03/09 09:13:01;;;;;;;;;;;24.00;71.90;;;;;;5035206;28;20099;-69
2023/03/09 09:15:28;;;;;;;;;;;23.90;71.70;;;;;;5025707;28;20677;-69
2023/03/09 09:17:55;;;;;;;;;;;23.90;71.20;;;;;;5038355;28;20434;-69
2023/03/09 09:20:21;;;;;;;;;;;23.90;71.30;;;;;;5035770;28;19913;-74
2023/03/09 09:22:48;;;;;;;;;;;23.90;71.70;;;;;;5025861;28;19909;-77
2023/03/09 09:25:15;;;;;;;;;;;23.90;72.20;;;;;;5040699;28;19909;-71
2023/03/09 09:27:42;;;;;;;;;;;23.80;72.60;;;;;;5039494;28;20536;-69
2023/03/09 09:30:09;;;;;;;;;;;23.90;73.40;;;;;;5037908;28;20262;-74
2023/03/09 09:32:36;;;;;;;;;;;23.80;73.70;;;;;;5032594;28;19921;-73
2023/03/09 09:35:04;;;;;;;;;;;23.80;73.80;;;;;;5030878;28;19932;-77
2023/03/09 09:37:31;;;;;;;;;;;23.80;74.20;;;;;;5025333;28;19913;-69
2023/03/09 09:39:58;;;;;;;;;;;23.80;74.40;;;;;;5039604;28;20011;-70
2023/03/09 09:42:39;;;;;;;;;;;23.80;75.10;;;;;;5036909;28;19971;-68
2023/03/09 09:45:24;;;;;;;;;;;23.70;74.70;;;;;;5034983;28;19964;-69
2023/03/09 09:47:51;;;;;;;;;;;23.60;75.60;;;;;;5029643;28;20366;-74
2023/03/09 09:50:18;;;;;;;;;;;23.60;76.20;;;;;;5037358;28;19917;-72
2023/03/09 09:52:47;;;;;;;;;;;23.60;76.20;;;;;;5022588;28;19909;-74
2023/03/09 09:55:17;;;;;;;;;;;23.60;76.80;;;;;;5039206;28;19916;-68
2023/03/09 09:57:45;;;;;;;;;;;23.50;76.30;;;;;;5030647;28;19909;-68
2023/03/09 10:00:16;;;;;;;;;;;23.60;76.70;;;;;;5031045;28;20018;-69
2023/03/09 10:03:15;;;;;;;;;;;23.50;77.10;;;;;;5034291;28;19913;-74
2023/03/09 10:05:44;;;;;;;;;;;23.50;77.20;;;;;;5031135;28;19917;-68
2023/03/09 10:08:20;;;;;;;;;;;23.50;78.00;;;;;;5030811;28;19916;-66
2023/03/09 10:10:47;;;;;;;;;;;23.50;78.20;;;;;;5037572;28;20142;-72
2023/03/09 10:13:16;;;;;;;;;;;23.40;78.90;;;;;;5034076;28;19913;-73
2023/03/09 10:15:43;;;;;;;;;;;23.30;79.20;;;;;;5026914;28;19913;-69
2023/03/09 10:18:18;;;;;;;;;;;23.30;79.20;;;;;;5034047;28;19955;-70
2023/03/09 10:20:47;;;;;;;;;;;23.20;79.60;;;;;;5040131;28;19916;-75
2023/03/09 10:23:23;;;;;;;;;;;23.20;80.10;;;;;;5042601;28;19920;-76
2023/03/09 10:25:52;;;;;;;;;;;23.10;80.70;;;;;;5041957;28;20066;-78
2023/03/09 10:28:19;;;;;;;;;;;23.10;81.10;;;;;;5042333;28;19909;-68
2023/03/09 10:30:51;;;;;;;;;;;23.00;81.50;;;;;;5041611;28;19921;-71
2023/03/09 10:33:24;;;;;;;;;;;23.00;81.90;;;;;;5042431;28;20373;-68
2023/03/09 10:35:57;;;;;;;;;;;23.00;82.50;;;;;;5040496;28;19913;-68
2023/03/09 10:38:23;;;;;;;;;;;23.00;82.60;;;;;;5042099;28;20332;-68
2023/03/09 10:40:52;;;;;;;;;;;23.00;82.90;;;;;;5040556;28;19920;-70
2023/03/09 10:43:33;;;;;;;;;;;23.00;83.40;;;;;;5037491;28;19917;-69
2023/03/09 10:46:13;;;;;;;;;;;22.90;83.60;;;;;;5021560;28;20042;-72
2023/03/09 10:48:40;;;;;;;;;;;22.90;84.20;;;;;;5021980;28;19946;-77
2023/03/09 10:51:21;;;;;;;;;;;22.80;84.40;;;;;;5039684;28;19917;-68
2023/03/09 10:53:48;;;;;;;;;;;22.80;84.70;;;;;;5041817;28;19996;-69
2023/03/09 10:56:22;;;;;;;;;;;22.80;85.30;;;;;;5041615;28;19984;-69
2023/03/09 10:59:07;;;;;;;;;;;22.70;85.60;;;;;;5042043;28;19921;-78
2023/03/09 11:01:38;;;;;;;;;;;22.70;85.80;;;;;;5040866;28;19921;-76
2023/03/09 11:04:23;;;;;;;;;;;22.60;86.40;;;;;;5041211;28;20388;-70
2023/03/09 11:06:59;;;;;;;;;;;22.60;86.90;;;;;;5040724;28;19909;-68
2023/03/09 11:09:45;;;;;;;;;;;22.60;87.30;;;;;;5035073;28;19913;-73
2023/03/09 11:12:14;;;;;;;;;;;22.50;87.40;;;;;;5052965;28;19947;-69
2023/03/09 11:14:48;;;;;;;;;;;22.50;87.90;;;;;;5057681;28;19909;-69
2023/03/09 11:17:33;;;;;;;;;;;22.40;88.40;;;;;;5056058;28;20362;-75
2023/03/09 11:20:12;;;;;;;;;;;22.40;88.80;;;;;;5040727;28;19912;-73
2023/03/09 11:22:48;;;;;;;;;;;22.40;88.90;;;;;;5042034;28;20392;-70
2023/03/09 11:25:17;;;;;;;;;;;22.30;89.60;;;;;;5041582;28;20381;-67
2023/03/09 11:27:47;;;;;;;;;;;22.30;89.80;;;;;;5040915;28;19909;-68
2023/03/09 11:30:15;;;;;;;;;;;22.30;90.00;;;;;;5041873;28;20305;-72
2023/03/09 11:32:42;;;;;;;;;;;22.30;90.20;;;;;;5040863;28;19945;-68
2023/03/09 11:35:16;;;;;;;;;;;22.20;90.30;;;;;;5041231;28;20103;-77
2023/03/09 11:37:51;;;;;;;;;;;22.20;90.50;;;;;;5039373;28;19952;-71
2023/03/09 11:40:19;;;;;;;;;;;22.10;90.70;;;;;;5039537;28;19923;-72
2023/03/09 11:42:57;;;;;;;;;;;22.20;90.90;;;;;;5040635;28;19908;-69
2023/03/09 11:45:29;;;;;;;;;;;22.10;91.20;;;;;;5040417;28;19909;-74
2023/03/09 11:48:01;;;;;;;;;;;22.10;91.30;;;;;;5040374;28;20328;-69
2023/03/09 11:50:31;;;;;;;;;;;22.10;91.50;;;;;;5045792;28;19959;-75
2023/03/09 11:53:02;;;;;;;;;;;22.10;91.60;;;;;;5041785;28;19923;-70
2023/03/09 11:55:40;;;;;;;;;;;22.10;91.90;;;;;;5045826;28;19936;-71
2023/03/09 11:58:30;;;;;;;;;;;22.00;92.00;;;;;;5042839;28;19909;-68
2023/03/09 12:01:10;;;;;;;;;;;22.00;92.20;;;;;;5039377;28;19927;-68
2023/03/09 12:03:47;;;;;;;;;;;21.90;92.10;;;;;;5043219;28;19951;-78
2023/03/09 12:06:25;;;;;;;;;;;21.90;92.40;;;;;;5042446;28;19909;-78
2023/03/09 12:08:53;;;;;;;;;;;21.90;92.50;;;;;;5041537;28;20329;-70
2023/03/09 12:11:32;;;;;;;;;;;21.80;92.70;;;;;;5045240;28;20293;-79
2023/03/09 12:14:20;;;;;;;;;;;21.80;93.00;;;;;;5043403;28;19936;-67
2023/03/09 12:16:50;;;;;;;;;;;21.80;93.20;;;;;;5045541;28;19909;-79
2023/03/09 12:19:19;;;;;;;;;;;21.80;93.10;;;;;;5045114;28;20011;-67
2023/03/09 12:21:58;;;;;;;;;;;21.80;93.40;;;;;;5044806;28;20388;-76
2023/03/09 12:24:33;;;;;;;;;;;21.70;93.50;;;;;;5045368;28;19909;-67
2023/03/09 12:27:12;;;;;;;;;;;21.60;93.70;;;;;;5043549;28;19973;-68
2023/03/09 12:29:41;;;;;;;;;;;21.60;93.70;;;;;;5045131;28;19908;-68
2023/03/09 12:32:17;;;;;;;;;;;21.50;93.80;;;;;;5043874;28;19917;-69
2023/03/09 12:34:44;;;;;;;;;;;21.50;93.80;;;;;;5044529;28;19909;-69
2023/03/09 12:37:29;;;;;;;;;;;21.50;94.00;;;;;;5044285;28;20368;-80
2023/03/09 12:40:14;;;;;;;;;;;21.40;94.20;;;;;;5043738;28;19920;-71
2023/03/09 12:42:41;;;;;;;;;;;21.40;94.20;;;;;;5025084;28;19917;-75
2023/03/09 12:45:11;;;;;;;;;;;21.30;94.20;;;;;;5024515;28;20008;-68
2023/03/09 12:47:44;;;;;;;;;;;21.30;94.20;;;;;;5025120;28;20285;-75
2023/03/09 12:50:34;;;;;;;;;;;21.30;94.40;;;;;;5029459;28;20008;-68
2023/03/09 12:53:20;;;;;;;;;;;21.20;94.60;;;;;;5045264;28;19913;-77
2023/03/09 12:55:49;;;;;;;;;;;21.20;94.70;;;;;;5044175;28;20366;-71
2023/03/09 12:58:21;;;;;;;;;;;21.20;94.60;;;;;;5042868;28;19920;-81
2023/03/09 13:00:58;;;;;;;;;;;21.10;94.60;;;;;;5043179;28;20316;-71
2023/03/09 13:03:34;;;;;;;;;;;21.10;94.70;;;;;;5044698;28;19909;-72
2023/03/09 13:06:21;;;;;;;;;;;21.00;94.80;;;;;;5043163;28;20397;-70
2023/03/09 13:08:53;;;;;;;;;;;21.00;94.90;;;;;;5043929;28;19917;-74
2023/03/09 13:11:25;;;;;;;;;;;21.10;94.90;;;;;;5043069;28;19943;-69
2023/03/09 13:13:53;;;;;;;;;;;21.00;95.00;;;;;;5043544;28;19909;-71
2023/03/09 13:16:31;;;;;;;;;;;21.00;95.10;;;;;;5043158;28;20073;-67
2023/03/09 13:19:19;;;;;;;;;;;21.00;95.20;;;;;;5044072;28;20292;-69
2023/03/09 13:21:49;;;;;;;;;;;21.00;95.40;;;;;;5044437;28;19908;-69
2023/03/09 13:24:18;;;;;;;;;;;20.90;95.50;;;;;;5043199;28;20375;-68
2023/03/09 13:26:47;;;;;;;;;;;20.90;95.60;;;;;;5044554;28;19912;-68
2023/03/09 13:29:18;;;;;;;;;;;20.90;95.80;;;;;;5042231;28;19913;-69
2023/03/09 13:31:48;;;;;;;;;;;20.90;96.20;;;;;;5044051;28;19917;-68
2023/03/09 13:34:19;;;;;;;;;;;20.80;96.00;;;;;;5043035;28;19948;-68
2023/03/09 13:36:45;;;;;;;;;;;20.70;96.10;;;;;;5044365;28;19924;-77
2023/03/09 13:39:16;;;;;;;;;;;20.70;96.30;;;;;;5042496;28;19920;-71
2023/03/09 13:41:43;;;;;;;;;;;20.60;96.60;;;;;;5044014;28;20128;-73
2023/03/09 13:44:17;;;;;;;;;;;20.70;97.00;;;;;;5041927;28;19956;-77
2023/03/09 13:46:54;;;;;;;;;;;20.60;96.90;;;;;;5043569;28;19909;-73
2023/03/09 13:49:22;;;;;;;;;;;20.60;97.00;;;;;;5042709;28;20352;-81
2023/03/09 13:51:52;;;;;;;;;;;20.60;97.00;;;;;;5043732;28;19964;-74
2023/03/09 13:54:24;;;;;;;;;;;20.60;97.20;;;;;;5042254;28;19919;-69
2023/03/09 13:57:17;;;;;;;;;;;20.50;97.30;;;;;;5043233;28;20004;-73
2023/03/09 13:59:44;;;;;;;;;;;20.50;97.50;;;;;;5043493;28;20266;-74
2023/03/09 14:02:14;;;;;;;;;;;20.40;97.80;;;;;;5041963;28;20016;-73
2023/03/09 14:04:46;;;;;;;;;;;20.50;97.90;;;;;;5043747;28;19911;-69
2023/03/09 14:07:21;;;;;;;;;;;20.40;98.10;;;;;;5041592;28;19912;-69
2023/03/09 14:09:56;;;;;;;;;;;20.40;98.30;;;;;;5043082;28;20737;-67
2023/03/09 14:12:25;;;;;;;;;;;20.30;98.30;;;;;;5042270;28;19919;-69
2023/03/09 14:14:51;;;;;;;;;;;20.30;98.30;;;;;;5043339;28;19917;-69
2023/03/09 14:17:19;;;;;;;;;;;20.30;98.30;;;;;;5041317;28;19913;-68
2023/03/09 14:19:49;;;;;;;;;;;20.30;98.40;;;;;;5042970;28;19916;-70
2023/03/09 14:22:20;;;;;;;;;;;20.30;98.50;;;;;;5041300;28;19980;-68
2023/03/09 14:24:47;;;;;;;;;;;20.20;98.70;;;;;;5042975;28;19935;-74
2023/03/09 14:27:23;;;;;;;;;;;20.20;98.90;;;;;;5040985;28;19920;-69
2023/03/09 14:29:50;;;;;;;;;;;20.20;99.10;;;;;;5042749;28;19964;-70